createdAt,value
2023-01-15T00:03:11.294Z,0.93
2023-01-15T00:08:13.142Z,1.40
2023-01-15T00:13:15.110Z,2.33
2023-01-15T00:18:16.927Z,3.80
2023-01-15T00:23:39.086Z,9.30
2023-01-15T00:33:42.620Z,0.53
2023-01-15T00:38:44.420Z,1.92
2023-01-15T00:43:46.756Z,0.73
2023-01-15T00:48:49.710Z,2.13
2023-01-15T00:53:51.658Z,1.67
2023-01-15T00:58:53.564Z,0.43
2023-01-15T01:03:55.366Z,3.22
2023-01-15T01:08:57.321Z,0.98
2023-01-15T01:13:59.173Z,0.50
2023-01-15T01:19:03.795Z,0.98
2023-01-15T01:24:06.840Z,0.20
2023-01-15T01:29:08.671Z,0.30
2023-01-15T01:34:11.761Z,0.13
2023-01-15T01:39:18.730Z,11.85
2023-01-15T01:44:32.550Z,0.20
2023-01-15T01:49:35.873Z,0.00
2023-01-15T01:54:39.178Z,0.75
2023-01-15T01:59:41.374Z,0.47
2023-01-15T02:04:43.702Z,1.13
2023-01-15T02:09:45.988Z,0.90
2023-01-15T02:15:04.381Z,0.90
2023-01-15T02:20:06.554Z,0.30
2023-01-15T02:25:51.969Z,2.30
2023-01-15T02:31:19.931Z,1.70
2023-01-15T02:36:24.617Z,2.03
2023-01-15T02:41:32.720Z,1.23
2023-01-15T02:46:36.943Z,0.35
2023-01-15T02:51:44.508Z,0.85
2023-01-15T02:56:48.532Z,0.13
2023-01-15T03:02:04.083Z,3.30
2023-01-15T03:07:10.038Z,0.63
2023-01-15T03:13:02.710Z,0.30
2023-01-15T03:18:08.426Z,0.30
2023-01-15T03:23:13.033Z,0.17
2023-01-15T03:28:17.699Z,0.10
2023-01-15T03:33:20.059Z,1.38
2023-01-15T03:38:24.155Z,0.08
2023-01-15T03:43:41.283Z,0.00
2023-01-15T03:49:10.036Z,0.20
2023-01-15T03:54:21.686Z,0.10
2023-01-15T03:59:33.032Z,0.00
2023-01-15T04:09:39.275Z,0.10
2023-01-15T04:14:41.283Z,0.45
2023-01-15T04:19:44.404Z,0.20
2023-01-15T04:24:46.223Z,1.88
2023-01-15T04:29:48.173Z,2.33
2023-01-15T04:34:50.535Z,0.13
2023-01-15T04:39:52.738Z,0.22
2023-01-15T04:44:54.546Z,0.00
2023-01-15T04:49:56.702Z,0.13
2023-01-15T04:55:01.265Z,0.45
2023-01-15T05:00:03.769Z,0.10
2023-01-15T05:05:05.923Z,0.03
2023-01-15T05:10:08.962Z,0.20
2023-01-15T05:15:10.830Z,2.85
2023-01-15T05:20:12.994Z,0.10
2023-01-15T05:25:15.222Z,0.50
2023-01-15T05:30:17.420Z,0.20
2023-01-15T05:35:19.745Z,0.40
2023-01-15T05:40:21.937Z,0.82
2023-01-15T05:45:24.128Z,0.10
2023-01-15T05:50:27.775Z,0.38
2023-01-15T05:55:30.720Z,1.90
2023-01-15T06:00:32.492Z,2.83
2023-01-15T06:05:34.249Z,0.08
2023-01-15T06:10:36.030Z,0.10
2023-01-15T06:15:37.998Z,0.00
2023-01-15T06:20:41.077Z,0.13
2023-01-15T06:25:42.833Z,0.17
2023-01-15T06:30:44.952Z,0.38
2023-01-15T06:35:47.085Z,0.28
2023-01-15T06:40:49.240Z,0.10
2023-01-15T06:46:09.877Z,1.33
2023-01-15T06:51:15.556Z,0.10
2023-01-15T06:56:17.305Z,1.98
2023-01-15T07:01:20.239Z,0.20
2023-01-15T07:06:22.043Z,0.20
2023-01-15T07:11:24.248Z,3.30
2023-01-15T07:16:29.309Z,0.25
2023-01-15T07:21:31.810Z,3.10
2023-01-15T07:26:34.100Z,1.75
2023-01-15T07:31:35.846Z,0.10
2023-01-15T07:36:38.071Z,0.50
2023-01-15T07:41:58.340Z,1.65
2023-01-15T07:47:19.111Z,1.05
2023-01-15T07:52:22.717Z,0.40
2023-01-15T07:57:25.093Z,0.65
2023-01-15T08:02:27.425Z,14.95
2023-01-15T08:07:29.190Z,0.35
2023-01-15T08:12:49.997Z,0.40
2023-01-15T08:17:52.591Z,0.40
2023-01-15T08:22:54.459Z,0.68
2023-01-15T08:27:56.569Z,0.63
2023-01-15T08:33:03.236Z,0.50
2023-01-15T08:38:06.918Z,0.20
2023-01-15T08:43:09.449Z,2.20
2023-01-15T08:48:11.632Z,0.70
2023-01-15T08:53:13.435Z,1.52
2023-01-15T08:58:16.051Z,0.43
2023-01-15T09:03:18.557Z,0.50
2023-01-15T09:08:20.434Z,1.30
2023-01-15T09:13:22.288Z,0.30
2023-01-15T09:18:24.410Z,2.63
2023-01-15T09:23:26.177Z,0.20
2023-01-15T09:28:29.300Z,0.30
2023-01-15T09:33:31.486Z,0.40
2023-01-15T09:38:35.121Z,0.93
2023-01-15T09:43:45.032Z,0.45
2023-01-15T09:48:52.124Z,0.30
2023-01-15T09:54:20.678Z,0.70
2023-01-15T09:59:42.116Z,0.60
2023-01-15T10:04:49.964Z,0.40
2023-01-15T10:10:01.115Z,0.25
2023-01-15T10:15:25.175Z,0.95
2023-01-15T10:20:50.286Z,0.82
2023-01-15T10:25:59.866Z,3.85
2023-01-15T10:31:22.427Z,0.63
2023-01-15T10:36:44.469Z,0.55
2023-01-15T10:42:08.872Z,0.60
2023-01-15T10:47:19.000Z,0.40
2023-01-15T10:52:43.055Z,1.05
2023-01-15T10:58:09.891Z,2.75
2023-01-15T11:03:27.084Z,0.68
2023-01-15T11:14:13.552Z,0.85
2023-01-15T11:19:38.008Z,0.20
2023-01-15T11:24:49.618Z,0.30
2023-01-15T11:29:54.935Z,0.55
2023-01-15T11:34:59.255Z,0.28
2023-01-15T11:40:10.035Z,0.30
2023-01-15T11:45:34.073Z,0.50
2023-01-15T11:50:45.384Z,1.40
2023-01-15T11:56:06.750Z,0.40
2023-01-15T12:01:09.452Z,2.03
2023-01-15T12:06:13.972Z,3.13
2023-01-15T12:11:50.008Z,0.30
2023-01-15T12:17:25.119Z,0.30
2023-01-15T12:22:27.250Z,1.27
2023-01-15T12:27:52.521Z,1.17
2023-01-15T12:33:16.483Z,0.70
2023-01-15T12:38:41.950Z,1.95
2023-01-15T12:44:08.098Z,2.05
2023-01-15T12:49:25.120Z,1.70
2023-01-15T12:54:38.269Z,1.13
2023-01-15T12:59:57.878Z,1.65
2023-01-15T13:05:19.115Z,1.45
2023-01-15T13:10:25.055Z,2.20
2023-01-15T13:15:33.291Z,0.57
2023-01-15T13:20:35.448Z,0.82
2023-01-15T13:26:08.483Z,0.95
2023-01-15T13:36:25.094Z,1.33
2023-01-15T13:41:48.347Z,2.55
2023-01-15T13:47:03.163Z,0.80
2023-01-15T13:52:07.278Z,2.60
2023-01-15T13:57:41.275Z,1.80
2023-01-15T14:02:55.438Z,1.00
2023-01-15T14:07:58.021Z,2.40
2023-01-15T14:13:29.616Z,2.42
2023-01-15T14:18:50.737Z,2.38
2023-01-15T14:24:11.920Z,4.93
2023-01-15T14:29:45.634Z,4.10
2023-01-15T14:34:59.380Z,0.65
2023-01-15T14:40:03.842Z,0.45
2023-01-15T14:45:11.705Z,0.50
2023-01-15T14:50:38.254Z,1.42
2023-01-15T14:56:03.372Z,1.92
2023-01-15T15:01:15.591Z,0.98
2023-01-15T15:06:17.989Z,2.03
2023-01-15T15:11:47.821Z,2.55
2023-01-15T15:16:53.966Z,3.42
2023-01-15T15:22:00.463Z,6.75
2023-01-15T15:27:19.683Z,5.25
2023-01-15T15:32:25.003Z,2.55
2023-01-15T15:37:29.917Z,2.50
2023-01-15T15:42:58.352Z,1.60
2023-01-15T15:48:27.933Z,8.13
2023-01-15T15:53:29.814Z,2.00
2023-01-15T15:58:36.385Z,2.22
2023-01-15T16:03:47.928Z,2.95
2023-01-15T16:09:01.479Z,2.92
2023-01-15T16:14:08.234Z,2.78
2023-01-15T16:19:17.912Z,4.13
2023-01-15T16:24:25.737Z,5.22
2023-01-15T16:29:33.404Z,2.90
2023-01-15T16:34:35.971Z,4.35
2023-01-15T16:39:43.960Z,2.88
2023-01-15T16:44:52.470Z,2.95
2023-01-15T16:50:14.428Z,10.63
2023-01-15T16:55:35.774Z,6.30
2023-01-15T17:00:38.075Z,14.10
2023-01-15T17:05:40.435Z,13.80
2023-01-15T17:10:59.336Z,40.10
2023-01-15T17:16:05.469Z,18.98
2023-01-15T17:21:29.328Z,17.55
2023-01-15T17:26:31.167Z,34.47
2023-01-15T17:31:34.363Z,23.08
2023-01-15T17:36:39.286Z,10.80
2023-01-15T17:41:41.437Z,4.45
2023-01-15T17:46:43.633Z,9.48
2023-01-15T17:51:45.556Z,10.43
2023-01-15T17:57:06.542Z,7.20
2023-01-15T18:02:33.766Z,2.63
2023-01-15T18:07:40.839Z,1.35
2023-01-15T18:12:42.670Z,3.92
2023-01-15T18:17:45.140Z,11.32
2023-01-15T18:22:46.945Z,2.63
2023-01-15T18:27:50.196Z,9.35
2023-01-15T18:32:52.599Z,4.75
2023-01-15T18:37:54.821Z,8.75
2023-01-15T18:43:15.913Z,11.98
2023-01-15T18:48:17.824Z,5.03
2023-01-15T18:53:19.702Z,4.82
2023-01-15T18:58:21.420Z,6.50
2023-01-15T19:03:23.619Z,5.20
2023-01-15T19:08:25.402Z,4.05
2023-01-15T19:13:27.627Z,2.83
2023-01-15T19:18:41.846Z,7.80
2023-01-15T19:23:43.675Z,3.70
2023-01-15T19:28:45.440Z,13.45
2023-01-15T19:33:47.611Z,8.32
2023-01-15T19:38:49.937Z,6.53
2023-01-15T19:44:12.710Z,7.78
2023-01-15T19:49:41.612Z,2.70
2023-01-15T19:55:00.030Z,3.22
2023-01-15T20:00:02.396Z,5.07
2023-01-15T20:05:06.807Z,5.90
2023-01-15T20:10:14.043Z,7.88
2023-01-15T20:15:15.918Z,6.38
2023-01-15T20:20:17.772Z,7.03
2023-01-15T20:25:19.505Z,9.65
2023-01-15T20:30:25.569Z,10.50
2023-01-15T20:35:33.526Z,8.75
2023-01-15T20:40:36.904Z,4.43
2023-01-15T20:45:39.579Z,3.30
2023-01-15T20:50:43.837Z,2.53
2023-01-15T20:55:56.880Z,6.03
2023-01-15T21:01:06.372Z,4.00
2023-01-15T21:06:09.321Z,2.22
2023-01-15T21:11:11.028Z,3.92
2023-01-15T21:16:14.538Z,6.50
2023-01-15T21:21:18.384Z,4.43
2023-01-15T21:26:20.150Z,4.22
2023-01-15T21:31:22.310Z,4.43
2023-01-15T21:36:24.527Z,5.68
2023-01-15T21:41:45.543Z,4.80
2023-01-15T21:46:47.378Z,3.13
2023-01-15T21:51:49.115Z,2.88
2023-01-15T21:56:50.897Z,2.63
2023-01-15T22:01:57.168Z,6.70
2023-01-15T22:06:59.081Z,3.42
2023-01-15T22:12:01.250Z,3.72
2023-01-15T22:17:04.666Z,3.03
2023-01-15T22:22:10.145Z,3.42
2023-01-15T22:27:15.782Z,2.28
2023-01-15T22:32:17.524Z,2.88
2023-01-15T22:37:19.294Z,5.43
2023-01-15T22:42:31.313Z,4.53
2023-01-15T22:47:33.569Z,2.30
2023-01-15T22:52:35.517Z,5.20
2023-01-15T22:57:37.810Z,3.63
2023-01-15T23:02:54.751Z,6.40
2023-01-15T23:07:56.923Z,2.22
2023-01-15T23:12:58.932Z,4.10
2023-01-15T23:18:00.793Z,3.92
2023-01-15T23:23:02.953Z,3.53
2023-01-15T23:28:04.862Z,3.55
2023-01-15T23:33:06.587Z,2.42
2023-01-15T23:38:08.339Z,2.58
2023-01-15T23:43:33.869Z,2.78
2023-01-15T23:48:35.754Z,2.65
2023-01-15T23:53:37.550Z,1.45
2023-01-15T23:58:39.339Z,3.28
